Time;durP1;ratioP1;P1;durP2;ratioP2;P2;SDS_P1;SDS_P2;PMS_P1;PMS_P2;Temp;Humidity;BMP_temperature;BMP_pressure;BME280_temperature;BME280_humidity;BME280_pressure;Samples;Min_cycle;Max_cycle;Signal;HPM_P1;HPM_P2
2023/04/13 01:33:32;;;;;;;3.10;0.90;;;7.40;99.10;;;;;;6261018;22;20776;-79
2023/04/13 01:36:00;;;;;;;3.40;1.20;;;7.50;99.20;;;;;;6337585;22;20415;-79
2023/04/13 01:38:28;;;;;;;3.30;1.10;;;7.40;99.40;;;;;;6337262;22;20961;-79
2023/04/13 01:40:56;;;;;;;4.63;1.20;;;7.50;98.80;;;;;;6337124;22;20413;-79
2023/04/13 01:43:23;;;;;;;7.53;1.50;;;7.50;99.00;;;;;;6336428;22;20447;-78
2023/04/13 01:45:59;;;;;;;3.40;1.10;;;7.50;98.40;;;;;;6309438;22;20413;-79
2023/04/13 01:48:34;;;;;;;3.83;1.40;;;7.70;98.20;;;;;;6337126;22;20396;-79
2023/04/13 01:51:06;;;;;;;3.10;0.90;;;7.70;98.10;;;;;;6337084;22;20392;-79
2023/04/13 01:53:40;;;;;;;4.57;1.00;;;7.70;97.20;;;;;;6337399;22;20439;-79
2023/04/13 01:56:08;;;;;;;3.77;1.07;;;7.80;97.90;;;;;;6337263;22;20393;-80
2023/04/13 01:58:36;;;;;;;3.50;1.00;;;7.80;97.20;;;;;;6337408;22;20440;-79
2023/04/13 02:01:06;;;;;;;4.57;1.20;;;7.80;97.30;;;;;;6337416;22;20503;-79
2023/04/13 02:03:37;;;;;;;3.60;1.37;;;7.80;98.00;;;;;;6336732;22;20443;-79
2023/04/13 02:06:06;;;;;;;3.50;1.20;;;7.80;98.40;;;;;;6337017;22;20416;-79
2023/04/13 02:08:33;;;;;;;6.40;1.17;;;7.80;97.40;;;;;;6337103;22;20411;-79
2023/04/13 02:11:03;;;;;;;4.83;1.20;;;7.80;97.20;;;;;;6349539;22;20436;-80
2023/04/13 02:13:30;;;;;;;3.73;1.17;;;7.90;97.30;;;;;;6339168;22;20796;-79
2023/04/13 02:15:58;;;;;;;6.17;1.30;;;7.90;97.30;;;;;;6339081;22;20438;-80
2023/04/13 02:18:25;;;;;;;8.00;1.00;;;8.00;97.30;;;;;;6339236;22;20408;-79
2023/04/13 02:21:02;;;;;;;5.37;1.23;;;7.90;97.20;;;;;;6339196;22;20414;-79
2023/04/13 02:23:30;;;;;;;4.80;1.33;;;7.90;97.20;;;;;;6349432;22;20424;-79
2023/04/13 02:25:57;;;;;;;5.23;1.43;;;7.90;96.90;;;;;;6338978;22;20409;-79
2023/04/13 02:28:25;;;;;;;4.83;1.90;;;8.00;97.30;;;;;;6349324;22;20410;-79
2023/04/13 02:30:55;;;;;;;4.50;1.20;;;8.00;97.30;;;;;;6338390;22;20465;-79
2023/04/13 02:33:22;;;;;;;4.17;1.37;;;8.00;97.40;;;;;;6310862;22;20527;-79
2023/04/13 02:35:49;;;;;;;13.97;2.13;;;8.00;96.80;;;;;;6338384;22;20904;-79
2023/04/13 02:38:17;;;;;;;3.70;1.30;;;8.00;96.80;;;;;;6339091;22;20415;-79
2023/04/13 02:40:45;;;;;;;9.83;1.43;;;8.00;97.30;;;;;;6338965;22;20443;-79
2023/04/13 02:43:12;;;;;;;5.03;1.20;;;8.00;96.80;;;;;;6349246;22;20442;-79
2023/04/13 02:45:40;;;;;;;4.00;1.20;;;8.00;96.80;;;;;;6338705;22;20412;-79
2023/04/13 02:48:08;;;;;;;4.13;1.23;;;8.00;96.90;;;;;;6338948;22;20418;-79
2023/04/13 02:50:35;;;;;;;10.63;1.50;;;8.00;97.00;;;;;;6338905;22;20408;-79
2023/04/13 02:53:02;;;;;;;6.43;1.60;;;8.00;97.30;;;;;;6338756;22;20424;-79
2023/04/13 02:55:31;;;;;;;3.40;1.10;;;8.00;97.30;;;;;;6338518;22;20887;-79
2023/04/13 02:57:58;;;;;;;4.73;1.30;;;8.00;97.30;;;;;;6338839;22;20419;-79
2023/04/13 03:00:27;;;;;;;4.00;1.20;;;8.00;96.20;;;;;;6338745;22;20432;-79
2023/04/13 03:02:54;;;;;;;4.53;1.03;;;8.00;96.50;;;;;;6338662;22;20800;-78
2023/04/13 03:05:21;;;;;;;4.23;1.27;;;8.00;96.20;;;;;;6348843;22;20408;-79
2023/04/13 03:07:48;;;;;;;5.80;1.13;;;8.00;96.40;;;;;;6338477;22;20412;-79
2023/04/13 03:10:15;;;;;;;8.60;1.53;;;8.00;96.40;;;;;;6338731;22;20426;-79
2023/04/13 03:12:43;;;;;;;5.97;1.10;;;8.00;97.30;;;;;;6338324;22;20899;-79
2023/04/13 03:15:13;;;;;;;5.60;1.10;;;8.00;96.80;;;;;;6338474;22;20408;-79
2023/04/13 03:17:40;;;;;;;3.60;1.03;;;8.00;97.10;;;;;;6338646;22;20415;-79
2023/04/13 03:20:11;;;;;;;5.50;1.30;;;8.00;97.30;;;;;;6337813;22;20782;-79
2023/04/13 03:22:38;;;;;;;3.40;1.00;;;7.90;97.20;;;;;;6338575;22;20393;-79
2023/04/13 03:25:08;;;;;;;5.70;1.67;;;7.90;97.60;;;;;;6338581;22;20419;-79
2023/04/13 03:27:35;;;;;;;4.80;1.50;;;7.80;98.10;;;;;;6338545;22;20531;-79
2023/04/13 03:30:08;;;;;;;9.43;1.50;;;7.80;98.00;;;;;;6338567;22;20408;-79
2023/04/13 03:32:35;;;;;;;4.40;1.47;;;7.80;98.00;;;;;;6337886;22;20915;-79
2023/04/13 03:35:02;;;;;;;4.87;1.20;;;7.80;98.30;;;;;;6338391;22;20428;-79
2023/04/13 03:37:31;;;;;;;5.30;1.70;;;7.80;98.20;;;;;;6338199;22;20408;-79
2023/04/13 03:39:58;;;;;;;6.80;3.20;;;7.80;98.90;;;;;;6311707;22;20478;-79
2023/04/13 03:42:25;;;;;;;5.67;1.50;;;7.80;97.70;;;;;;6338292;22;20408;-78
2023/04/13 03:44:52;;;;;;;6.30;1.77;;;7.80;98.40;;;;;;6338136;22;20428;-79
2023/04/13 03:47:31;;;;;;;5.40;1.50;;;7.80;98.40;;;;;;6338109;22;20415;-80
2023/04/13 03:49:58;;;;;;;4.70;1.80;;;7.80;98.90;;;;;;6337735;22;20418;-79
2023/04/13 03:52:25;;;;;;;6.33;2.60;;;7.80;99.00;;;;;;6338398;22;20408;-78
2023/04/13 03:54:52;;;;;;;5.20;1.30;;;7.80;98.30;;;;;;6337721;22;20439;-78
2023/04/13 03:57:19;;;;;;;5.57;1.40;;;7.80;99.00;;;;;;6338099;22;20746;-79
2023/04/13 03:59:46;;;;;;;3.30;0.90;;;7.80;99.80;;;;;;6311080;22;20435;-78
2023/04/13 04:02:12;;;;;;;7.83;1.50;;;7.70;99.30;;;;;;6337382;22;20408;-78
2023/04/13 04:04:41;;;;;;;5.20;1.30;;;7.70;99.90;;;;;;6337888;22;20429;-79
2023/04/13 04:07:07;;;;;;;4.77;1.50;;;7.60;99.90;;;;;;6337303;22;20999;-78
2023/04/13 04:09:34;;;;;;;4.57;1.70;;;7.50;99.90;;;;;;6337958;22;20408;-78
2023/04/13 04:12:02;;;;;;;9.70;1.80;;;7.50;99.90;;;;;;6338010;22;20409;-78
2023/04/13 04:14:30;;;;;;;5.73;1.87;;;7.40;99.90;;;;;;6337684;22;20940;-78
2023/04/13 04:23:14;;;;;;;3.60;1.60;;;7.40;99.90;;;;;;6278623;22;20433;-78
2023/04/13 04:25:51;;;;;;;10.20;1.60;;;7.40;99.90;;;;;;6306645;22;20386;-78
2023/04/13 04:28:21;;;;;;;3.30;1.30;;;7.40;99.90;;;;;;6316646;22;20416;-77
2023/04/13 04:30:54;;;;;;;3.67;1.30;;;7.50;99.90;;;;;;6306808;22;20429;-76
2023/04/13 04:33:22;;;;;;;3.40;1.50;;;7.50;99.90;;;;;;6278361;22;20490;-78
2023/04/13 04:36:12;;;;;;;3.50;1.67;;;7.50;99.90;;;;;;6306097;22;20412;-78
2023/04/13 04:39:04;;;;;;;4.97;1.97;;;7.60;99.90;;;;;;6315292;22;20433;-79
2023/04/13 04:41:32;;;;;;;4.17;1.80;;;7.50;99.90;;;;;;6191264;23;20451;-79
2023/04/13 04:47:31;;;;;;;3.20;1.40;;;7.50;99.90;;;;;;6156082;22;20415;-78
2023/04/13 04:49:57;;;;;;;5.17;2.20;;;7.60;99.90;;;;;;6306641;22;20430;-78
2023/04/13 04:52:34;;;;;;;4.70;1.70;;;7.50;99.90;;;;;;6305897;22;20427;-78
2023/04/13 04:55:13;;;;;;;5.80;2.10;;;7.50;99.90;;;;;;6278862;22;20809;-78
2023/04/13 04:57:40;;;;;;;5.90;2.30;;;7.40;99.90;;;;;;6279434;22;20792;-78
2023/04/13 05:00:14;;;;;;;5.03;2.17;;;7.30;99.90;;;;;;6306594;22;20429;-78
2023/04/13 05:02:40;;;;;;;8.43;2.90;;;7.30;99.90;;;;;;6305864;22;20729;-78
2023/04/13 05:05:11;;;;;;;6.53;2.27;;;7.40;99.90;;;;;;6306061;22;20943;-79
2023/04/13 05:07:38;;;;;;;6.63;3.70;;;7.40;99.90;;;;;;6306548;22;20398;-78
2023/04/13 05:10:09;;;;;;;5.33;2.33;;;7.30;99.90;;;;;;6305937;22;20917;-77
2023/04/13 05:12:36;;;;;;;5.00;1.87;;;7.30;99.90;;;;;;6306384;22;20398;-78
2023/04/13 05:15:04;;;;;;;4.80;2.77;;;7.20;99.90;;;;;;6305794;22;20492;-78
2023/04/13 05:17:31;;;;;;;3.90;2.70;;;7.10;99.90;;;;;;6305844;22;20939;-78
2023/04/13 05:19:58;;;;;;;4.47;3.50;;;7.20;99.90;;;;;;6306476;22;20439;-77
2023/04/13 05:22:25;;;;;;;7.07;3.72;;;7.20;99.90;;;;;;6319202;22;20400;-79
2023/04/13 05:24:51;;;;;;;6.70;3.13;;;7.20;99.90;;;;;;6337192;22;20269;-78
2023/04/13 05:27:22;;;;;;;4.67;4.00;;;7.20;99.90;;;;;;6337579;22;20447;-78
2023/04/13 05:29:49;;;;;;;6.37;2.20;;;7.30;99.90;;;;;;6337132;22;20472;-77
2023/04/13 05:32:16;;;;;;;6.60;3.60;;;7.30;99.90;;;;;;6337380;22;20412;-77
2023/04/13 05:34:43;;;;;;;10.33;2.30;;;7.30;99.90;;;;;;6347440;22;20823;-78
2023/04/13 05:37:10;;;;;;;4.10;2.67;;;7.30;99.90;;;;;;6337189;22;20920;-77
2023/04/13 05:39:37;;;;;;;6.17;2.40;;;7.30;99.90;;;;;;6337386;22;20475;-77
2023/04/13 05:42:05;;;;;;;3.97;2.40;;;7.30;99.90;;;;;;6337655;22;20408;-78
2023/04/13 05:44:33;;;;;;;6.70;2.63;;;7.30;99.90;;;;;;6337803;22;20432;-77
2023/04/13 05:47:01;;;;;;;7.70;2.87;;;7.30;99.90;;;;;;6336898;22;20414;-78
2023/04/13 05:49:28;;;;;;;9.60;2.43;;;7.40;99.90;;;;;;6337576;22;20478;-77
2023/04/13 05:51:55;;;;;;;5.10;2.00;;;7.40;99.90;;;;;;6337534;22;20419;-78
2023/04/13 05:54:22;;;;;;;3.80;1.87;;;7.50;99.90;;;;;;6336963;22;20456;-78
2023/04/13 05:56:48;;;;;;;3.93;2.20;;;7.50;99.90;;;;;;6337073;22;20448;-78
2023/04/13 05:59:16;;;;;;;5.77;2.10;;;7.50;99.90;;;;;;6337019;22;20495;-78
2023/04/13 06:01:45;;;;;;;3.90;2.20;;;7.60;99.90;;;;;;6336722;22;20732;-77
2023/04/13 06:04:13;;;;;;;9.20;2.60;;;7.60;99.90;;;;;;6336682;22;20464;-78
2023/04/13 06:06:39;;;;;;;4.93;1.97;;;7.70;99.90;;;;;;6337120;22;20756;-77
2023/04/13 06:09:07;;;;;;;4.43;2.00;;;7.80;99.90;;;;;;6337342;22;20409;-78
2023/04/13 06:11:34;;;;;;;4.83;1.60;;;7.90;99.90;;;;;;6337197;22;20412;-78
2023/04/13 06:14:01;;;;;;;4.00;1.80;;;7.90;99.90;;;;;;6336639;22;20432;-78
2023/04/13 06:16:28;;;;;;;5.13;1.80;;;7.90;99.90;;;;;;6336642;22;20412;-78
2023/04/13 06:18:57;;;;;;;9.93;2.10;;;7.80;99.90;;;;;;6336226;22;20495;-77
2023/04/13 06:21:26;;;;;;;6.60;2.07;;;7.90;99.90;;;;;;6336781;22;20661;-78
2023/04/13 06:23:53;;;;;;;5.20;1.73;;;7.90;99.90;;;;;;6335933;22;20501;-78
2023/04/13 06:26:27;;;;;;;8.57;2.60;;;8.00;99.90;;;;;;6337281;22;20412;-78
2023/04/13 06:28:54;;;;;;;4.37;1.80;;;8.20;99.50;;;;;;6337056;22;20419;-79
2023/04/13 06:31:22;;;;;;;5.47;1.50;;;8.30;99.40;;;;;;6336975;22;20408;-78
2023/04/13 06:33:49;;;;;;;5.80;2.10;;;8.60;99.90;;;;;;6337164;22;20432;-78
2023/04/13 06:36:17;;;;;;;5.53;1.70;;;8.80;98.50;;;;;;6337119;22;20466;-78
2023/04/13 06:38:44;;;;;;;10.57;2.17;;;8.90;98.40;;;;;;6334704;22;21093;-79
2023/04/13 06:41:11;;;;;;;6.70;1.73;;;8.80;98.20;;;;;;6337169;22;20451;-79
2023/04/13 06:43:38;;;;;;;6.43;1.90;;;8.70;98.20;;;;;;6336989;22;20499;-79
2023/04/13 06:46:06;;;;;;;7.20;1.90;;;8.80;97.60;;;;;;6336814;22;20914;-79
2023/04/13 06:48:33;;;;;;;4.10;1.90;;;8.80;97.80;;;;;;6336435;22;20412;-79
2023/04/13 06:51:00;;;;;;;7.37;2.00;;;8.90;97.60;;;;;;6336370;22;20404;-79
2023/04/13 06:53:28;;;;;;;5.70;1.93;;;9.00;97.70;;;;;;6337059;22;20428;-79
2023/04/13 06:55:55;;;;;;;6.57;2.27;;;9.00;97.70;;;;;;6337943;22;20412;-79
2023/04/13 06:58:22;;;;;;;5.10;1.87;;;9.00;97.70;;;;;;6338917;22;20504;-78
2023/04/13 07:00:49;;;;;;;5.83;1.80;;;9.20;97.80;;;;;;6338731;22;20436;-79
2023/04/13 07:03:16;;;;;;;6.67;1.77;;;9.30;97.10;;;;;;6337523;22;20491;-79
2023/04/13 07:05:43;;;;;;;5.23;1.30;;;9.50;96.60;;;;;;6336525;22;20408;-79
2023/04/13 07:08:11;;;;;;;9.10;2.33;;;9.70;96.70;;;;;;6336873;22;20412;-79
2023/04/13 07:10:39;;;;;;;5.67;1.87;;;9.70;95.80;;;;;;6347523;22;20721;-79
2023/04/13 07:13:07;;;;;;;7.00;1.90;;;9.80;96.00;;;;;;6337810;22;20428;-79
2023/04/13 07:15:36;;;;;;;6.10;1.97;;;9.80;95.50;;;;;;6338639;22;20414;-79
2023/04/13 07:18:03;;;;;;;5.70;1.53;;;9.90;96.00;;;;;;6338145;22;20408;-79
2023/04/13 07:20:30;;;;;;;6.47;1.60;;;10.10;94.70;;;;;;6310810;22;20438;-79
2023/04/13 07:22:57;;;;;;;4.93;1.47;;;10.00;94.70;;;;;;6338322;22;20436;-79
2023/04/13 07:25:24;;;;;;;7.30;1.60;;;9.80;94.70;;;;;;6337494;22;20413;-79
2023/04/13 07:30:44;;;;;;;5.73;1.63;;;9.70;95.30;;;;;;6336055;22;20408;-78
2023/04/13 07:33:11;;;;;;;6.40;1.60;;;9.60;95.60;;;;;;6335976;22;20446;-78
2023/04/13 07:35:38;;;;;;;4.23;1.30;;;9.60;95.40;;;;;;6337310;22;20447;-78
2023/04/13 07:38:06;;;;;;;5.73;1.80;;;9.60;95.30;;;;;;6337902;22;20405;-78
2023/04/13 07:40:34;;;;;;;4.00;1.70;;;9.50;95.30;;;;;;6337916;22;20438;-78
2023/04/13 07:43:03;;;;;;;4.87;1.77;;;9.50;95.50;;;;;;6337585;22;20448;-79
2023/04/13 07:45:30;;;;;;;9.87;1.80;;;9.60;95.60;;;;;;6337295;22;20413;-78
2023/04/13 07:47:57;;;;;;;6.57;2.30;;;9.90;95.00;;;;;;6337473;22;20448;-78
2023/04/13 07:50:24;;;;;;;6.50;1.83;;;10.00;94.70;;;;;;6337230;22;20483;-78
2023/04/13 07:52:51;;;;;;;5.77;1.67;;;9.90;94.70;;;;;;6337562;22;20412;-79
2023/04/13 07:55:18;;;;;;;8.03;3.03;;;9.90;95.70;;;;;;6337917;22;20435;-78
2023/04/13 07:57:45;;;;;;;6.53;2.13;;;9.90;95.10;;;;;;6309890;22;21077;-78
2023/04/13 08:00:15;;;;;;;7.33;2.00;;;10.10;94.10;;;;;;6337809;22;20499;-78
2023/04/13 08:02:42;;;;;;;5.83;1.83;;;10.10;94.80;;;;;;6336665;22;20399;-78
2023/04/13 08:05:11;;;;;;;7.47;1.90;;;10.20;94.30;;;;;;6338173;22;20499;-78
2023/04/13 08:07:39;;;;;;;5.77;2.00;;;10.30;94.30;;;;;;6336780;22;20408;-78
2023/04/13 08:10:07;;;;;;;6.70;1.97;;;10.60;94.10;;;;;;6336754;22;20752;-78
2023/04/13 08:12:34;;;;;;;9.30;2.00;;;10.30;93.40;;;;;;6337196;22;20413;-78
2023/04/13 08:15:01;;;;;;;8.00;2.27;;;10.40;94.00;;;;;;6337278;22;20415;-78
2023/04/13 08:17:30;;;;;;;11.27;2.37;;;10.30;93.20;;;;;;6336708;22;20408;-78
2023/04/13 08:19:57;;;;;;;7.10;2.30;;;10.30;94.00;;;;;;6337731;22;20455;-78
2023/04/13 08:22:24;;;;;;;8.00;2.50;;;10.40;94.50;;;;;;6337066;22;20431;-79
2023/04/13 08:24:52;;;;;;;12.53;2.43;;;10.60;94.10;;;;;;6337203;22;20440;-78
2023/04/13 08:27:19;;;;;;;7.93;2.27;;;10.50;94.10;;;;;;6337497;22;20506;-78
2023/04/13 08:29:46;;;;;;;8.43;2.20;;;10.40;95.30;;;;;;6310023;22;20907;-78
2023/04/13 08:32:13;;;;;;;8.07;2.23;;;10.20;94.30;;;;;;6336781;22;20409;-78
2023/04/13 08:34:41;;;;;;;10.80;2.07;;;10.00;95.00;;;;;;6337062;22;20428;-78
2023/04/13 08:37:10;;;;;;;14.17;2.47;;;9.90;95.30;;;;;;6340524;22;20412;-78
2023/04/13 08:39:38;;;;;;;10.03;2.57;;;9.90;95.80;;;;;;6338023;22;20416;-78
2023/04/13 08:42:06;;;;;;;16.03;3.20;;;9.80;96.50;;;;;;6337024;22;20428;-78
2023/04/13 08:44:33;;;;;;;8.00;2.40;;;9.70;96.60;;;;;;6337257;22;20486;-78
2023/04/13 08:47:00;;;;;;;10.80;2.93;;;9.80;97.60;;;;;;6336961;22;20408;-78
2023/04/13 08:49:28;;;;;;;15.70;3.10;;;9.80;97.00;;;;;;6337761;22;20409;-78
2023/04/13 08:51:59;;;;;;;10.37;2.70;;;9.70;96.00;;;;;;6337754;22;20453;-79
2023/04/13 08:54:27;;;;;;;15.23;4.07;;;9.70;98.30;;;;;;6337807;22;20749;-78
2023/04/13 08:56:57;;;;;;;10.47;3.10;;;9.70;98.30;;;;;;6336993;22;20495;-78
2023/04/13 08:59:25;;;;;;;12.13;2.90;;;9.80;98.00;;;;;;6337931;22;20408;-78
2023/04/13 09:01:53;;;;;;;18.87;3.27;;;9.60;97.90;;;;;;6336711;22;20428;-78
2023/04/13 09:04:23;;;;;;;13.07;2.70;;;9.50;97.90;;;;;;6306879;22;20456;-78
2023/04/13 09:06:51;;;;;;;11.13;3.20;;;9.50;98.80;;;;;;6335103;22;20900;-77
2023/04/13 09:09:20;;;;;;;9.97;3.57;;;9.50;99.90;;;;;;6336134;22;20462;-78
2023/04/13 09:11:47;;;;;;;14.93;2.77;;;9.50;99.90;;;;;;6336281;22;20912;-79
2023/04/13 09:14:18;;;;;;;16.90;3.03;;;9.50;99.30;;;;;;6337226;22;20935;-79
2023/04/13 09:16:45;;;;;;;11.50;3.87;;;9.70;99.90;;;;;;6347097;22;20416;-79
2023/04/13 09:19:12;;;;;;;13.50;5.10;;;9.70;99.30;;;;;;6336969;22;20419;-79
2023/04/13 09:21:41;;;;;;;10.30;3.40;;;9.90;99.10;;;;;;6337790;22;20684;-79
2023/04/13 09:24:09;;;;;;;13.87;3.60;;;10.20;99.00;;;;;;6336988;22;20437;-79
2023/04/13 09:26:42;;;;;;;13.83;3.40;;;10.60;97.90;;;;;;6336509;22;20495;-79
2023/04/13 09:29:12;;;;;;;15.50;3.03;;;11.00;97.10;;;;;;6336367;22;20953;-79
2023/04/13 09:31:39;;;;;;;14.37;4.00;;;11.30;95.30;;;;;;6337408;22;20498;-79
2023/04/13 09:34:07;;;;;;;16.13;3.70;;;11.50;94.20;;;;;;6336397;22;20515;-79
2023/04/13 09:36:34;;;;;;;13.13;2.83;;;11.90;92.70;;;;;;6336511;22;20409;-79
2023/04/13 09:39:01;;;;;;;10.67;3.70;;;12.20;92.50;;;;;;6337556;22;20409;-79
2023/04/13 09:41:30;;;;;;;10.67;2.93;;;12.70;90.70;;;;;;6337175;22;20433;-79
2023/04/13 09:43:59;;;;;;;14.30;3.40;;;12.80;89.90;;;;;;6309027;22;20433;-79
2023/04/13 09:46:26;;;;;;;10.37;3.07;;;13.50;86.10;;;;;;6337120;22;20495;-79
2023/04/13 09:49:01;;;;;;;11.00;3.07;;;13.60;80.30;;;;;;6308573;22;20440;-79
2023/04/13 09:51:36;;;;;;;14.60;3.03;;;13.70;82.60;;;;;;6336824;22;20436;-79
2023/04/13 09:54:04;;;;;;;9.63;2.53;;;13.50;77.30;;;;;;6336711;22;20424;-81
2023/04/13 09:56:41;;;;;;;12.27;3.20;;;14.40;80.20;;;;;;6337409;22;20410;-82
2023/04/13 18:43:03;;;;;;;8.80;3.07;;;9.00;44.30;;;;;;6243390;22;20512;-82
2023/04/13 18:45:35;;;;;;;8.50;2.20;;;8.80;46.10;;;;;;6253485;23;21025;-82
2023/04/13 18:48:21;;;;;;;9.30;2.00;;;8.50;44.80;;;;;;6217403;23;20406;-83
2023/04/13 18:51:03;;;;;;;7.90;2.00;;;8.40;46.70;;;;;;6237186;23;20446;-82
2023/04/13 19:40:27;;;;;;;;;;;;;;;;;;;;;
2023/04/13 19:46:17;;;;;;;9.00;2.07;;;7.90;61.20;;;;;;6239654;23;20895;-81
2023/04/13 19:48:48;;;;;;;7.73;2.20;;;7.80;60.40;;;;;;6245461;23;20885;-82
2023/04/13 19:51:40;;;;;;;12.07;3.50;;;7.90;60.80;;;;;;6245519;23;20391;-82
2023/04/13 20:00:15;;;;;;;15.07;4.00;;;8.10;60.40;;;;;;6243377;22;20735;-82
2023/04/13 20:03:09;;;;;;;10.60;3.13;;;8.20;61.50;;;;;;6245189;22;20469;-82
2023/04/13 20:05:47;;;;;;;6.70;2.00;;;8.10;60.60;;;;;;6241462;23;20419;-82
2023/04/13 20:08:25;;;;;;;10.40;2.93;;;8.00;60.90;;;;;;6245132;23;20395;-82
2023/04/13 20:10:56;;;;;;;9.63;2.60;;;8.20;62.40;;;;;;6245219;23;20391;-82
2023/04/13 20:14:00;;;;;;;12.27;4.30;;;8.20;60.50;;;;;;6217350;23;20431;-82
2023/04/13 20:17:26;;;;;;;;;;;;;;;;;;;;;
2023/04/13 20:28:09;;;;;;;13.23;2.23;;;7.60;71.80;;;;;;6243828;22;20435;-80
2023/04/13 20:36:46;;;;;;;5.97;2.10;;;7.70;71.90;;;;;;6168323;23;20415;-81
2023/04/13 20:39:51;;;;;;;11.40;2.67;;;7.50;78.60;;;;;;6245254;23;20391;-81
2023/04/13 21:16:08;;;;;;;7.20;2.80;;;7.00;90.80;;;;;;6237207;22;20443;-81
2023/04/13 21:18:40;;;;;;;7.00;1.87;;;7.00;92.20;;;;;;6251164;23;20455;-81
2023/04/13 21:21:37;;;;;;;8.53;2.20;;;7.00;93.10;;;;;;6244603;23;20395;-82
2023/04/13 21:24:15;;;;;;;7.13;2.37;;;6.90;93.80;;;;;;6242834;22;20501;-82
2023/04/13 21:26:56;;;;;;;9.17;2.87;;;7.00;94.20;;;;;;6254500;23;20395;-82
2023/04/13 21:29:44;;;;;;;9.03;2.27;;;7.20;95.50;;;;;;6244579;23;20395;-82
2023/04/13 21:35:08;;;;;;;6.10;1.97;;;7.40;93.90;;;;;;6243866;22;20427;-81
2023/04/13 21:37:53;;;;;;;7.87;2.97;;;7.30;93.60;;;;;;6244814;23;20461;-81
2023/04/13 21:40:28;;;;;;;7.10;2.47;;;7.50;94.20;;;;;;6217754;23;20447;-81
2023/04/13 21:42:58;;;;;;;5.13;1.80;;;7.40;94.50;;;;;;6244455;22;20833;-81
2023/04/13 21:45:38;;;;;;;10.67;2.50;;;7.40;94.50;;;;;;6244146;23;20415;-81
2023/04/13 21:48:10;;;;;;;4.80;2.63;;;7.40;95.00;;;;;;6243265;23;20835;-81
2023/04/13 21:51:30;;;;;;;13.07;2.93;;;7.10;96.80;;;;;;6244451;23;20878;-81
2023/04/13 21:54:03;;;;;;;9.93;3.00;;;6.90;96.60;;;;;;6236819;22;20442;-81
2023/04/13 21:56:50;;;;;;;7.63;2.40;;;6.80;96.70;;;;;;6244364;23;20870;-81
2023/04/13 21:59:22;;;;;;;7.40;3.90;;;6.50;96.80;;;;;;6244614;23;20453;-81
2023/04/13 22:01:57;;;;;;;13.20;4.60;;;6.30;98.70;;;;;;6217884;23;20478;-81
2023/04/13 22:04:50;;;;;;;10.50;8.50;;;6.20;99.80;;;;;;6244686;22;20434;-82
2023/04/13 22:07:17;;;;;;;13.60;9.93;;;6.00;99.90;;;;;;6253603;23;20415;-81
2023/04/13 22:10:10;;;;;;;15.00;13.90;;;5.80;99.90;;;;;;6243735;23;20758;-81
2023/04/13 22:12:41;;;;;;;20.77;18.90;;;5.70;99.90;;;;;;6244248;22;20400;-81
2023/04/13 22:15:10;;;;;;;28.40;26.73;;;5.60;99.90;;;;;;6250323;22;20457;-81
2023/04/13 22:17:49;;;;;;;22.97;20.80;;;5.40;99.90;;;;;;6244359;23;21048;-82
2023/04/13 22:20:31;;;;;;;20.63;19.30;;;5.40;99.90;;;;;;6254205;23;20470;-81
2023/04/13 22:22:59;;;;;;;26.03;24.60;;;5.20;99.90;;;;;;6244383;22;20446;-81
2023/04/13 22:25:40;;;;;;;27.33;26.07;;;5.20;99.90;;;;;;6244938;23;20425;-81
2023/04/13 22:28:19;;;;;;;25.53;24.20;;;5.10;99.90;;;;;;6246292;23;20399;-82
2023/04/13 22:51:39;;;;;;;;;;;;;;;;;;;;;
2023/04/13 22:54:17;;;;;;;62.60;60.00;;;5.20;99.90;;;;;;6251879;22;20435;-82
2023/04/13 22:57:15;;;;;;;72.80;69.90;;;5.30;99.90;;;;;;6256101;23;20418;-82
2023/04/13 23:39:41;;;;;;;90.03;86.67;;;4.70;99.90;;;;;;6229189;22;20855;-80
